Republica Dominicana

TAF

       

     

                               

SANTO DOMINGO 22 DE AGOSTO 2019

  AEROP. INT. LAS AMERICAS JFPG-

 

FTDR31 MDSD 221000Z
TAF 

TAF MDPP 221000Z 2212/2312 09015KT 9999 FEW020=

TAF MDST 221000Z 2212/2312 11005KT 9999 FEW017 PROB30 2212/2218 7000 -RA SCT016 BKN070= 

TAF MDPC 221000Z 2212/2312 00000KT 9999 SCT018 SCT300 BECMG 2214/2216 09010KT=

TAF MDBH 221000Z 2212/2312 13016KT 9999 FEW016CB SCT018 SCT080 PROB40 TEMPO 2218/2300 6000 TSRA FEW014CB BKN016 BKN070 =

TAF MDJB 221000Z 2212/2312 00000KT 9999 SCT018 BECMG 2212/2214 03004KT PROB40 TEMPO 2219/2301 5000 TSRA FEW014CB BKN016 OVC070=

TAF MDSD 221000Z 2212/2312 05004KT 9999 FEW018CB SCT020 PROB30 TEMPO 2212/2217 7000 -RA FEW016CB BKN018 BECMG 2215/2217 13011KT PROB40 TEMPO 2219/2201 6000 TSRA FEW014CB BKN016 BKN070=

TAF MDLR 221000Z 2212/2312 00000KT 9999 SCT018 PROB30 2213/2219 7000 -RA BKN018 BECMG 2213/2215 12010KT=

TAF MDCY 221000Z 2212/2312 00000KT 9999 FEW018 BECMG 2214/2216 09010KT PROB30 2215/2221 8000 –TSRA FEW016CB BKN017=

MDPP AEROPUERTO INTERNACIONAL LA UNION PUERTO PLATA

MDST AEROPUERTO INTERNACIONAL DE SANTIAGO

MDPC AEROPUERTO INTERNACIONAL PUNTA CANA

MDBH AEROPUERTO INTERNACIONAL DE BARAHONA

MDJB AEROPUERTO INTERNACIONAL JOAQUIN BALAGUER

MDSD AEROPUERTO INTERNACIONAL LAS AMERICAS

MDLR AEROPUERTO INTERNACIONAL LA ROMANA

MDCY AEROPUERTO INTERNACIONAL DE CATEY

 

HATY MOTA

MDPP // J.ACOSTA

MDST // J.CASTILLO

MDPC // B.BERIHUETE

 




Tamaño letra

Contraste

Otros